sensor_id;sensor_type;location;lat;lon;timestamp;pressure;altitude;pressure_sealevel;temperature;humidity
39891;BME280;25564;53.312;9.790;2023-05-29T00:00:57;101549.63;;;11.13;68.44
39891;BME280;25564;53.312;9.790;2023-05-29T00:03:28;101567.31;;;11.18;68.76
39891;BME280;25564;53.312;9.790;2023-05-29T00:06:04;101562.91;;;11.13;69.00
39891;BME280;25564;53.312;9.790;2023-05-29T00:08:37;101571.81;;;11.06;68.62
39891;BME280;25564;53.312;9.790;2023-05-29T00:11:08;101571.81;;;11.05;69.14
39891;BME280;25564;53.312;9.790;2023-05-29T00:13:40;101575.38;;;11.01;69.09
39891;BME280;25564;53.312;9.790;2023-05-29T00:16:11;101572.72;;;10.99;69.57
39891;BME280;25564;53.312;9.790;2023-05-29T00:18:43;101575.38;;;11.01;69.13
39891;BME280;25564;53.312;9.790;2023-05-29T00:21:18;101579.78;;;11.03;69.37
39891;BME280;25564;53.312;9.790;2023-05-29T00:23:49;101585.09;;;11.06;70.04
39891;BME280;25564;53.312;9.790;2023-05-29T00:26:21;101580.63;;;11.10;69.64
39891;BME280;25564;53.312;9.790;2023-05-29T00:28:53;101588.56;;;11.14;69.61
39891;BME280;25564;53.312;9.790;2023-05-29T00:31:24;101586.78;;;11.17;69.76
39891;BME280;25564;53.312;9.790;2023-05-29T00:33:55;101592.09;;;11.20;70.03
39891;BME280;25564;53.312;9.790;2023-05-29T00:36:27;101602.72;;;11.20;69.73
39891;BME280;25564;53.312;9.790;2023-05-29T00:38:59;101595.63;;;11.19;69.72
39891;BME280;25564;53.312;9.790;2023-05-29T00:41:31;101585.06;;;11.11;70.21
39891;BME280;25564;53.312;9.790;2023-05-29T00:44:02;101586.88;;;11.04;70.39
39891;BME280;25564;53.312;9.790;2023-05-29T00:46:34;101580.69;;;10.99;70.45
39891;BME280;25564;53.312;9.790;2023-05-29T00:49:06;101614.34;;;11.00;70.39
39891;BME280;25564;53.312;9.790;2023-05-29T00:51:38;101594.03;;;10.84;70.69
39891;BME280;25564;53.312;9.790;2023-05-29T00:54:11;101617.94;;;10.89;70.46
39891;BME280;25564;53.312;9.790;2023-05-29T00:56:44;101617.94;;;10.82;71.24
39891;BME280;25564;53.312;9.790;2023-05-29T00:59:15;101611.81;;;10.70;70.90
39891;BME280;25564;53.312;9.790;2023-05-29T01:01:48;101613.56;;;10.71;70.90
39891;BME280;25564;53.312;9.790;2023-05-29T01:04:23;101622.44;;;10.68;71.34
39891;BME280;25564;53.312;9.790;2023-05-29T01:06:55;101626.88;;;10.65;70.95
39891;BME280;25564;53.312;9.790;2023-05-29T01:09:31;101625.97;;;10.63;71.37
39891;BME280;25564;53.312;9.790;2023-05-29T01:12:32;101626.00;;;10.57;70.98
39891;BME280;25564;53.312;9.790;2023-05-29T01:15:28;101633.94;;;10.63;71.50
39891;BME280;25564;53.312;9.790;2023-05-29T01:18:30;101626.88;;;10.60;71.11
39891;BME280;25564;53.312;9.790;2023-05-29T01:27:42;101630.41;;;10.62;70.62
39891;BME280;25564;53.312;9.790;2023-05-29T01:30:16;101641.03;;;10.59;70.65
39891;BME280;25564;53.312;9.790;2023-05-29T01:32:48;101627.78;;;10.52;71.17
39891;BME280;25564;53.312;9.790;2023-05-29T01:35:19;101647.22;;;10.60;70.91
39891;BME280;25564;53.312;9.790;2023-05-29T01:37:51;101630.44;;;10.50;71.27
39891;BME280;25564;53.312;9.790;2023-05-29T01:40:22;101631.31;;;10.52;71.03
39891;BME280;25564;53.312;9.790;2023-05-29T01:42:54;101646.34;;;10.58;70.66
39891;BME280;25564;53.312;9.790;2023-05-29T01:45:26;101640.16;;;10.56;70.97
39891;BME280;25564;53.312;9.790;2023-05-29T01:47:58;101636.63;;;10.52;70.54
39891;BME280;25564;53.312;9.790;2023-05-29T01:50:30;101647.25;;;10.47;70.17
39891;BME280;25564;53.312;9.790;2023-05-29T01:53:02;101634.03;;;10.37;70.44
39891;BME280;25564;53.312;9.790;2023-05-29T01:55:33;101634.06;;;10.34;70.37
39891;BME280;25564;53.312;9.790;2023-05-29T01:58:05;101638.47;;;10.29;70.30
39891;BME280;25564;53.312;9.790;2023-05-29T02:00:37;101623.44;;;10.14;70.10
39891;BME280;25564;53.312;9.790;2023-05-29T02:03:09;101631.41;;;10.06;70.69
39891;BME280;25564;53.312;9.790;2023-05-29T02:05:44;101609.31;;;9.84;69.89
39891;BME280;25564;53.312;9.790;2023-05-29T02:08:15;101642.88;;;9.96;69.81
39891;BME280;25564;53.312;9.790;2023-05-29T02:10:47;101648.19;;;9.90;70.21
39891;BME280;25564;53.312;9.790;2023-05-29T02:13:18;101651.72;;;9.81;69.89
39891;BME280;25564;53.312;9.790;2023-05-29T02:15:50;101651.72;;;9.74;69.96
39891;BME280;25564;53.312;9.790;2023-05-29T02:18:21;101652.59;;;9.65;69.94
39891;BME280;25564;53.312;9.790;2023-05-29T02:20:52;101665.84;;;9.61;70.35
39891;BME280;25564;53.312;9.790;2023-05-29T02:23:24;101669.38;;;9.57;70.60
39891;BME280;25564;53.312;9.790;2023-05-29T02:25:56;101668.47;;;9.53;70.73
39891;BME280;25564;53.312;9.790;2023-05-29T02:28:27;101664.94;;;9.51;70.83
39891;BME280;25564;53.312;9.790;2023-05-29T02:30:59;101660.50;;;9.48;70.17
39891;BME280;25564;53.312;9.790;2023-05-29T02:33:30;101666.69;;;9.46;70.80
39891;BME280;25564;53.312;9.790;2023-05-29T02:36:02;101641.97;;;9.30;70.43
39891;BME280;25564;53.312;9.790;2023-05-29T02:38:33;101655.19;;;9.38;70.72
39891;BME280;25564;53.312;9.790;2023-05-29T02:41:05;101663.16;;;9.33;71.06
39891;BME280;25564;53.312;9.790;2023-05-29T02:43:37;101664.91;;;9.31;70.69
39891;BME280;25564;53.312;9.790;2023-05-29T02:46:08;101658.72;;;9.26;70.49
39891;BME280;25564;53.312;9.790;2023-05-29T02:48:39;101664.91;;;9.24;71.13
39891;BME280;25564;53.312;9.790;2023-05-29T02:51:11;101665.75;;;9.18;70.87
39891;BME280;25564;53.312;9.790;2023-05-29T02:53:42;101641.88;;;9.01;70.86
39891;BME280;25564;53.312;9.790;2023-05-29T02:56:14;101638.31;;;8.96;71.13
39891;BME280;25564;53.312;9.790;2023-05-29T02:58:46;101650.66;;;8.94;71.37
39891;BME280;25564;53.312;9.790;2023-05-29T03:01:18;101652.44;;;8.95;70.93
39891;BME280;25564;53.312;9.790;2023-05-29T03:03:50;101656.81;;;8.92;71.21
39891;BME280;25564;53.312;9.790;2023-05-29T03:06:21;101640.88;;;8.76;71.46
39891;BME280;25564;53.312;9.790;2023-05-29T03:08:53;101655.91;;;8.85;71.23
39891;BME280;25564;53.312;9.790;2023-05-29T03:11:24;101661.19;;;8.82;71.60
39891;BME280;25564;53.312;9.790;2023-05-29T03:13:56;101670.00;;;8.79;71.60
39891;BME280;25564;53.312;9.790;2023-05-29T03:16:27;101649.66;;;8.68;71.70
39891;BME280;25564;53.312;9.790;2023-05-29T03:19:00;101657.63;;;8.77;71.69
39891;BME280;25564;53.312;9.790;2023-05-29T03:21:32;101664.69;;;8.73;71.52
39891;BME280;25564;53.312;9.790;2023-05-29T03:24:04;101669.09;;;8.74;71.47
39891;BME280;25564;53.312;9.790;2023-05-29T03:26:36;101667.34;;;8.75;71.65
39891;BME280;25564;53.312;9.790;2023-05-29T03:29:07;101653.16;;;8.65;71.81
39891;BME280;25564;53.312;9.790;2023-05-29T03:31:39;101664.69;;;8.75;71.92
39891;BME280;25564;53.312;9.790;2023-05-29T03:34:10;101650.53;;;8.67;71.78
39891;BME280;25564;53.312;9.790;2023-05-29T03:36:42;101650.53;;;8.68;72.00
39891;BME280;25564;53.312;9.790;2023-05-29T03:39:13;101667.38;;;8.81;72.32
39891;BME280;25564;53.312;9.790;2023-05-29T03:41:45;101648.81;;;8.78;71.72
39891;BME280;25564;53.312;9.790;2023-05-29T03:44:17;101651.53;;;8.89;71.97
39891;BME280;25564;53.312;9.790;2023-05-29T03:46:49;101663.03;;;8.98;71.98
39891;BME280;25564;53.312;9.790;2023-05-29T03:49:21;101648.00;;;8.94;71.61
39891;BME280;25564;53.312;9.790;2023-05-29T03:51:52;101669.25;;;9.08;71.56
39891;BME280;25564;53.312;9.790;2023-05-29T03:54:23;101644.47;;;8.94;71.54
39891;BME280;25564;53.312;9.790;2023-05-29T03:56:55;101680.75;;;9.14;71.52
39891;BME280;25564;53.312;9.790;2023-05-29T03:59:27;101682.53;;;9.18;71.54
39891;BME280;25564;53.312;9.790;2023-05-29T04:01:58;101673.69;;;9.10;71.59
39891;BME280;25564;53.312;9.790;2023-05-29T04:04:29;101692.25;;;9.23;71.85
39891;BME280;25564;53.312;9.790;2023-05-29T04:07:01;101691.38;;;9.24;71.67
39891;BME280;25564;53.312;9.790;2023-05-29T04:09:33;101677.22;;;9.18;71.43
39891;BME280;25564;53.312;9.790;2023-05-29T04:12:04;101672.81;;;9.17;71.58
39891;BME280;25564;53.312;9.790;2023-05-29T04:14:37;101687.88;;;9.32;71.22
39891;BME280;25564;53.312;9.790;2023-05-29T04:17:08;101689.66;;;9.32;71.30
39891;BME280;25564;53.312;9.790;2023-05-29T04:19:40;101703.78;;;9.43;71.80
39891;BME280;25564;53.312;9.790;2023-05-29T04:22:11;101671.09;;;9.33;71.26
39891;BME280;25564;53.312;9.790;2023-05-29T04:24:43;101716.19;;;9.59;71.54
39891;BME280;25564;53.312;9.790;2023-05-29T04:27:14;101705.59;;;9.62;70.76
39891;BME280;25564;53.312;9.790;2023-05-29T04:29:46;101699.41;;;9.62;71.28
39891;BME280;25564;53.312;9.790;2023-05-29T04:32:17;101710.91;;;9.74;70.74
39891;BME280;25564;53.312;9.790;2023-05-29T04:34:49;101714.47;;;9.79;70.76
39891;BME280;25564;53.312;9.790;2023-05-29T04:37:22;101709.16;;;9.82;70.52
39891;BME280;25564;53.312;9.790;2023-05-29T04:40:00;101710.06;;;9.88;71.26
39891;BME280;25564;53.312;9.790;2023-05-29T04:42:32;101687.97;;;9.84;70.92
39891;BME280;25564;53.312;9.790;2023-05-29T04:45:05;101711.84;;;10.02;70.58
39891;BME280;25564;53.312;9.790;2023-05-29T04:47:37;101713.63;;;10.12;70.82
39891;BME280;25564;53.312;9.790;2023-05-29T04:50:16;101711.00;;;10.20;70.63
39891;BME280;25564;53.312;9.790;2023-05-29T04:52:48;101718.94;;;10.25;70.35
39891;BME280;25564;53.312;9.790;2023-05-29T04:55:20;101713.66;;;10.28;70.50
39891;BME280;25564;53.312;9.790;2023-05-29T04:57:52;101718.94;;;10.32;70.10
39891;BME280;25564;53.312;9.790;2023-05-29T05:00:24;101727.78;;;10.39;70.22
39891;BME280;25564;53.312;9.790;2023-05-29T05:02:56;101727.75;;;10.43;69.68
39891;BME280;25564;53.312;9.790;2023-05-29T05:05:28;101714.53;;;10.37;69.44
39891;BME280;25564;53.312;9.790;2023-05-29T05:07:59;101689.78;;;10.32;69.67
39891;BME280;25564;53.312;9.790;2023-05-29T05:10:30;101719.78;;;10.57;69.25
39891;BME280;25564;53.312;9.790;2023-05-29T05:13:02;101698.53;;;10.59;69.11
39891;BME280;25564;53.312;9.790;2023-05-29T05:15:34;101723.28;;;10.77;69.66
39891;BME280;25564;53.312;9.790;2023-05-29T05:18:05;101718.84;;;10.84;68.92
39891;BME280;25564;53.312;9.790;2023-05-29T05:20:36;101721.47;;;10.93;69.14
39891;BME280;25564;53.312;9.790;2023-05-29T05:23:09;101724.09;;;11.01;68.62
39891;BME280;25564;53.312;9.790;2023-05-29T05:25:40;101719.66;;;11.04;68.73
39891;BME280;25564;53.312;9.790;2023-05-29T05:28:12;101734.69;;;11.11;68.84
39891;BME280;25564;53.312;9.790;2023-05-29T05:30:44;101731.16;;;11.14;68.45
39891;BME280;25564;53.312;9.790;2023-05-29T05:33:15;101739.13;;;11.12;68.91
39891;BME280;25564;53.312;9.790;2023-05-29T05:35:47;101747.06;;;11.19;68.29
39891;BME280;25564;53.312;9.790;2023-05-29T05:38:18;101744.41;;;11.23;68.18
39891;BME280;25564;53.312;9.790;2023-05-29T05:40:50;101735.53;;;11.27;68.45
39891;BME280;25564;53.312;9.790;2023-05-29T05:43:21;101729.34;;;11.27;67.93
39891;BME280;25564;53.312;9.790;2023-05-29T05:45:55;101734.63;;;11.31;68.40
39891;BME280;25564;53.312;9.790;2023-05-29T05:48:27;101741.69;;;11.35;68.05
39891;BME280;25564;53.312;9.790;2023-05-29T05:50:58;101739.91;;;11.42;67.98
39891;BME280;25564;53.312;9.790;2023-05-29T05:53:30;101741.56;;;11.54;67.84
39891;BME280;25564;53.312;9.790;2023-05-29T05:56:01;101733.38;;;11.95;67.97
39891;BME280;25564;53.312;9.790;2023-05-29T05:58:32;101736.28;;;13.50;65.77
39891;BME280;25564;53.312;9.790;2023-05-29T06:01:04;101737.94;;;15.15;62.85
39891;BME280;25564;53.312;9.790;2023-05-29T06:03:35;101744.28;;;16.30;59.78
39891;BME280;25564;53.312;9.790;2023-05-29T06:06:09;101751.91;;;17.13;58.37
39891;BME280;25564;53.312;9.790;2023-05-29T06:08:41;101749.59;;;17.61;57.00
39891;BME280;25564;53.312;9.790;2023-05-29T06:11:12;101741.22;;;17.72;56.44
39891;BME280;25564;53.312;9.790;2023-05-29T06:13:44;101749.78;;;18.13;55.55
39891;BME280;25564;53.312;9.790;2023-05-29T06:16:15;101740.44;;;18.24;54.40
39891;BME280;25564;53.312;9.790;2023-05-29T06:18:47;101754.56;;;18.31;53.81
39891;BME280;25564;53.312;9.790;2023-05-29T06:21:18;101753.78;;;18.54;53.65
39891;BME280;25564;53.312;9.790;2023-05-29T06:23:50;101738.03;;;18.43;53.01
39891;BME280;25564;53.312;9.790;2023-05-29T06:26:22;101749.69;;;18.70;52.19
39891;BME280;25564;53.312;9.790;2023-05-29T06:28:54;101754.66;;;18.81;51.62
39891;BME280;25564;53.312;9.790;2023-05-29T06:31:26;101743.53;;;18.91;51.54
39891;BME280;25564;53.312;9.790;2023-05-29T06:33:57;101764.28;;;18.63;51.34
39891;BME280;25564;53.312;9.790;2023-05-29T06:36:29;101758.75;;;18.40;51.42
39891;BME280;25564;53.312;9.790;2023-05-29T06:39:01;101747.63;;;18.24;51.78
39891;BME280;25564;53.312;9.790;2023-05-29T06:41:32;101752.00;;;18.00;52.04
39891;BME280;25564;53.312;9.790;2023-05-29T06:44:03;101759.56;;;17.58;53.05
39891;BME280;25564;53.312;9.790;2023-05-29T06:46:35;101746.28;;;17.22;53.86
39891;BME280;25564;53.312;9.790;2023-05-29T06:49:09;101737.00;;;16.71;54.54
39891;BME280;25564;53.312;9.790;2023-05-29T06:51:41;101752.22;;;16.34;55.16
39891;BME280;25564;53.312;9.790;2023-05-29T06:54:12;101750.28;;;16.04;55.90
39891;BME280;25564;53.312;9.790;2023-05-29T06:56:45;101726.94;;;15.70;56.29
39891;BME280;25564;53.312;9.790;2023-05-29T06:59:32;101746.16;;;15.49;56.60
39891;BME280;25564;53.312;9.790;2023-05-29T07:02:04;101723.25;;;15.36;57.00
39891;BME280;25564;53.312;9.790;2023-05-29T07:04:39;101745.53;;;15.36;56.82
39891;BME280;25564;53.312;9.790;2023-05-29T07:07:10;101752.19;;;15.16;56.96
39891;BME280;25564;53.312;9.790;2023-05-29T07:09:42;101756.97;;;14.98;56.91
39891;BME280;25564;53.312;9.790;2023-05-29T07:12:13;101753.72;;;14.83;56.91
39891;BME280;25564;53.312;9.790;2023-05-29T07:14:44;101760.06;;;14.77;57.20
39891;BME280;25564;53.312;9.790;2023-05-29T07:17:19;101770.78;;;14.74;57.12
39891;BME280;25564;53.312;9.790;2023-05-29T07:19:50;101771.78;;;14.68;57.09
39891;BME280;25564;53.312;9.790;2023-05-29T07:22:22;101760.22;;;14.68;56.73
39891;BME280;25564;53.312;9.790;2023-05-29T07:24:53;101768.97;;;14.76;56.87
39891;BME280;25564;53.312;9.790;2023-05-29T07:27:25;101766.06;;;14.90;56.91
39891;BME280;25564;53.312;9.790;2023-05-29T07:29:56;101762.38;;;14.95;56.90
39891;BME280;25564;53.312;9.790;2023-05-29T07:32:27;101769.41;;;15.01;56.55
39891;BME280;25564;53.312;9.790;2023-05-29T07:34:59;101774.72;;;15.02;56.55
39891;BME280;25564;53.312;9.790;2023-05-29T07:37:30;101763.19;;;15.00;56.64
39891;BME280;25564;53.312;9.790;2023-05-29T07:40:03;101747.50;;;14.82;56.59
39891;BME280;25564;53.312;9.790;2023-05-29T07:42:37;101769.94;;;14.72;56.35
39891;BME280;25564;53.312;9.790;2023-05-29T07:45:08;101775.38;;;14.67;56.36
39891;BME280;25564;53.312;9.790;2023-05-29T07:47:40;101772.56;;;14.75;56.75
39891;BME280;25564;53.312;9.790;2023-05-29T07:50:14;101767.84;;;14.89;56.33
39891;BME280;25564;53.312;9.790;2023-05-29T07:52:45;101786.34;;;15.01;56.15
39891;BME280;25564;53.312;9.790;2023-05-29T07:55:17;101777.41;;;15.02;56.14
39891;BME280;25564;53.312;9.790;2023-05-29T07:57:48;101801.34;;;15.09;56.12
39891;BME280;25564;53.312;9.790;2023-05-29T08:00:20;101791.34;;;15.20;55.59
39891;BME280;25564;53.312;9.790;2023-05-29T08:02:51;101779.59;;;15.27;55.84
39891;BME280;25564;53.312;9.790;2023-05-29T08:05:24;101785.03;;;15.22;55.88
39891;BME280;25564;53.312;9.790;2023-05-29T08:07:56;101784.72;;;15.39;55.52
39891;BME280;25564;53.312;9.790;2023-05-29T08:10:27;101785.75;;;15.32;55.46
39891;BME280;25564;53.312;9.790;2023-05-29T08:12:59;101781.88;;;15.47;55.61
39891;BME280;25564;53.312;9.790;2023-05-29T08:15:30;101798.06;;;15.82;55.59
39891;BME280;25564;53.312;9.790;2023-05-29T08:18:03;101793.97;;;16.06;55.21
39891;BME280;25564;53.312;9.790;2023-05-29T08:20:34;101791.13;;;16.12;55.06
39891;BME280;25564;53.312;9.790;2023-05-29T08:23:06;101782.13;;;16.16;54.97
39891;BME280;25564;53.312;9.790;2023-05-29T08:25:37;101768.03;;;16.08;54.53
39891;BME280;25564;53.312;9.790;2023-05-29T08:28:09;101783.28;;;16.05;54.68
39891;BME280;25564;53.312;9.790;2023-05-29T08:30:40;101790.56;;;15.98;54.73
39891;BME280;25564;53.312;9.790;2023-05-29T08:33:12;101779.28;;;15.84;54.81
39891;BME280;25564;53.312;9.790;2023-05-29T08:35:43;101760.66;;;15.79;54.92
39891;BME280;25564;53.312;9.790;2023-05-29T08:38:15;101774.63;;;15.93;55.04
39891;BME280;25564;53.312;9.790;2023-05-29T08:40:47;101788.63;;;16.05;54.74
39891;BME280;25564;53.312;9.790;2023-05-29T08:43:22;101783.94;;;16.14;54.71
39891;BME280;25564;53.312;9.790;2023-05-29T08:45:54;101786.56;;;16.17;54.26
39891;BME280;25564;53.312;9.790;2023-05-29T08:48:27;101767.91;;;16.13;54.42
39891;BME280;25564;53.312;9.790;2023-05-29T08:51:02;101773.75;;;16.30;54.04
39891;BME280;25564;53.312;9.790;2023-05-29T08:53:33;101773.63;;;16.34;54.08
39891;BME280;25564;53.312;9.790;2023-05-29T08:56:05;101782.28;;;16.46;54.12
39891;BME280;25564;53.312;9.790;2023-05-29T08:58:37;101767.75;;;16.56;54.23
39891;BME280;25564;53.312;9.790;2023-05-29T09:01:09;101783.56;;;16.66;53.78
39891;BME280;25564;53.312;9.790;2023-05-29T09:03:41;101755.06;;;16.62;53.77
39891;BME280;25564;53.312;9.790;2023-05-29T09:06:13;101779.09;;;16.99;52.99
39891;BME280;25564;53.312;9.790;2023-05-29T09:08:44;101778.19;;;17.00;53.13
39891;BME280;25564;53.312;9.790;2023-05-29T09:11:15;101778.22;;;16.99;53.04
39891;BME280;25564;53.312;9.790;2023-05-29T09:13:47;101775.97;;;17.16;52.93
39891;BME280;25564;53.312;9.790;2023-05-29T09:16:18;101782.72;;;17.31;52.83
39891;BME280;25564;53.312;9.790;2023-05-29T09:18:50;101782.72;;;17.31;52.61
39891;BME280;25564;53.312;9.790;2023-05-29T09:21:27;101752.75;;;17.15;52.34
39891;BME280;25564;53.312;9.790;2023-05-29T09:24:04;101758.66;;;17.28;52.29
39891;BME280;25564;53.312;9.790;2023-05-29T09:26:36;101779.00;;;17.35;51.92
39891;BME280;25564;53.312;9.790;2023-05-29T09:29:07;101785.78;;;17.48;51.48
39891;BME280;25564;53.312;9.790;2023-05-29T09:31:46;101780.25;;;17.54;51.86
39891;BME280;25564;53.312;9.790;2023-05-29T09:34:24;101790.97;;;17.54;52.08
39891;BME280;25564;53.312;9.790;2023-05-29T09:37:07;101790.78;;;17.60;52.00
39891;BME280;25564;53.312;9.790;2023-05-29T09:39:47;101783.47;;;17.67;51.94
39891;BME280;25564;53.312;9.790;2023-05-29T09:42:19;101786.34;;;17.89;51.74
39891;BME280;25564;53.312;9.790;2023-05-29T09:44:52;101774.53;;;17.94;51.18
39891;BME280;25564;53.312;9.790;2023-05-29T09:47:24;101795.16;;;18.22;51.17
39891;BME280;25564;53.312;9.790;2023-05-29T09:49:55;101781.41;;;18.05;50.87
39891;BME280;25564;53.312;9.790;2023-05-29T09:52:29;101787.00;;;17.97;50.43
39891;BME280;25564;53.312;9.790;2023-05-29T09:55:01;101766.00;;;17.82;50.30
39891;BME280;25564;53.312;9.790;2023-05-29T09:57:33;101788.16;;;17.88;50.74
39891;BME280;25564;53.312;9.790;2023-05-29T10:00:06;101769.50;;;17.84;50.13
39891;BME280;25564;53.312;9.790;2023-05-29T10:02:44;101771.88;;;17.94;50.50
39891;BME280;25564;53.312;9.790;2023-05-29T10:05:15;101770.75;;;18.02;50.46
39891;BME280;25564;53.312;9.790;2023-05-29T10:07:49;101772.78;;;18.21;50.27
39891;BME280;25564;53.312;9.790;2023-05-29T10:10:25;101766.44;;;18.24;50.00
39891;BME280;25564;53.312;9.790;2023-05-29T10:12:59;101754.47;;;18.34;49.62
39891;BME280;25564;53.312;9.790;2023-05-29T10:15:35;101755.88;;;18.46;49.69
39891;BME280;25564;53.312;9.790;2023-05-29T10:18:13;101755.28;;;18.64;49.49
39891;BME280;25564;53.312;9.790;2023-05-29T10:20:50;101773.94;;;18.69;49.14
39891;BME280;25564;53.312;9.790;2023-05-29T10:23:29;101765.78;;;18.72;48.98
39891;BME280;25564;53.312;9.790;2023-05-29T10:26:08;101756.41;;;18.82;48.63
39891;BME280;25564;53.312;9.790;2023-05-29T10:28:48;101778.09;;;18.77;48.00
39891;BME280;25564;53.312;9.790;2023-05-29T10:31:34;101764.59;;;18.79;48.16
39891;BME280;25564;53.312;9.790;2023-05-29T10:34:29;101766.19;;;18.84;49.02
39891;BME280;25564;53.312;9.790;2023-05-29T10:40:06;101762.00;;;18.76;48.39
39891;BME280;25564;53.312;9.790;2023-05-29T10:42:45;101755.00;;;18.72;47.32
39891;BME280;25564;53.312;9.790;2023-05-29T10:50:44;101738.25;;;18.64;47.22
39891;BME280;25564;53.312;9.790;2023-05-29T10:53:19;101741.47;;;18.73;47.05
39891;BME280;25564;53.312;9.790;2023-05-29T10:55:53;101740.69;;;18.71;47.38
39891;BME280;25564;53.312;9.790;2023-05-29T10:58:26;101739.25;;;18.61;46.72
39891;BME280;25564;53.312;9.790;2023-05-29T11:00:58;101743.16;;;18.51;46.88
39891;BME280;25564;53.312;9.790;2023-05-29T11:03:31;101737.00;;;18.47;46.83
39891;BME280;25564;53.312;9.790;2023-05-29T11:06:17;101751.94;;;18.56;46.31
39891;BME280;25564;53.312;9.790;2023-05-29T11:08:58;101736.91;;;18.50;46.80
39891;BME280;25564;53.312;9.790;2023-05-29T11:11:32;101736.84;;;18.52;46.65
39891;BME280;25564;53.312;9.790;2023-05-29T11:14:07;101745.50;;;18.61;46.48
39891;BME280;25564;53.312;9.790;2023-05-29T11:16:38;101737.28;;;18.66;46.25
39891;BME280;25564;53.312;9.790;2023-05-29T11:19:10;101736.03;;;18.75;46.04
39891;BME280;25564;53.312;9.790;2023-05-29T11:22:19;101742.91;;;18.83;46.22
39891;BME280;25564;53.312;9.790;2023-05-29T11:24:48;101748.91;;;18.91;45.47
39891;BME280;25564;53.312;9.790;2023-05-29T11:27:21;101726.13;;;18.77;45.41
39891;BME280;25564;53.312;9.790;2023-05-29T11:29:52;101712.66;;;18.77;45.63
39891;BME280;25564;53.312;9.790;2023-05-29T11:32:27;101720.72;;;19.02;44.75
39891;BME280;25564;53.312;9.790;2023-05-29T11:35:05;101727.81;;;19.04;45.18
39891;BME280;25564;53.312;9.790;2023-05-29T11:37:39;101723.50;;;19.23;44.94
39891;BME280;25564;53.312;9.790;2023-05-29T11:40:12;101738.44;;;19.32;45.00
39891;BME280;25564;53.312;9.790;2023-05-29T11:42:45;101729.44;;;19.33;45.29
39891;BME280;25564;53.312;9.790;2023-05-29T11:45:20;101737.84;;;19.24;45.24
39891;BME280;25564;53.312;9.790;2023-05-29T11:47:56;101729.19;;;19.16;45.14
39891;BME280;25564;53.312;9.790;2023-05-29T11:50:33;101733.81;;;19.36;45.34
39891;BME280;25564;53.312;9.790;2023-05-29T11:53:08;101733.25;;;19.51;44.92
39891;BME280;25564;53.312;9.790;2023-05-29T11:55:40;101739.69;;;19.47;44.60
39891;BME280;25564;53.312;9.790;2023-05-29T11:58:12;101712.41;;;19.33;44.14
39891;BME280;25564;53.312;9.790;2023-05-29T12:00:43;101730.41;;;19.31;44.29
39891;BME280;25564;53.312;9.790;2023-05-29T12:03:18;101730.72;;;19.46;44.30
39891;BME280;25564;53.312;9.790;2023-05-29T12:05:49;101720.78;;;19.48;44.21
39891;BME280;25564;53.312;9.790;2023-05-29T12:08:24;101725.97;;;19.54;43.88
39891;BME280;25564;53.312;9.790;2023-05-29T12:10:56;101747.63;;;19.50;43.04
39891;BME280;25564;53.312;9.790;2023-05-29T12:13:27;101729.13;;;19.41;42.96
39891;BME280;25564;53.312;9.790;2023-05-29T12:16:04;101721.28;;;19.35;42.65
39891;BME280;25564;53.312;9.790;2023-05-29T12:18:36;101727.56;;;19.35;42.74
39891;BME280;25564;53.312;9.790;2023-05-29T12:21:07;101729.91;;;19.44;42.31
39891;BME280;25564;53.312;9.790;2023-05-29T12:23:39;101730.47;;;19.54;42.49
39891;BME280;25564;53.312;9.790;2023-05-29T12:26:10;101729.41;;;19.58;42.31
39891;BME280;25564;53.312;9.790;2023-05-29T12:28:44;101707.75;;;19.61;42.12
39891;BME280;25564;53.312;9.790;2023-05-29T12:31:29;101717.75;;;19.79;41.19
39891;BME280;25564;53.312;9.790;2023-05-29T12:34:02;101725.28;;;19.93;41.99
39891;BME280;25564;53.312;9.790;2023-05-29T12:36:42;101721.66;;;19.94;41.66
39891;BME280;25564;53.312;9.790;2023-05-29T12:39:14;101727.75;;;19.99;41.51
39891;BME280;25564;53.312;9.790;2023-05-29T12:41:45;101733.00;;;20.02;41.31
39891;BME280;25564;53.312;9.790;2023-05-29T12:44:18;101716.28;;;19.94;41.22
39891;BME280;25564;53.312;9.790;2023-05-29T12:46:56;101718.28;;;19.89;41.27
39891;BME280;25564;53.312;9.790;2023-05-29T12:49:27;101724.28;;;19.96;41.23
39891;BME280;25564;53.312;9.790;2023-05-29T12:52:06;101704.19;;;20.04;41.37
39891;BME280;25564;53.312;9.790;2023-05-29T12:54:39;101719.53;;;20.24;40.57
39891;BME280;25564;53.312;9.790;2023-05-29T12:57:10;101717.84;;;20.43;40.51
39891;BME280;25564;53.312;9.790;2023-05-29T12:59:43;101708.63;;;20.49;40.25
39891;BME280;25564;53.312;9.790;2023-05-29T13:02:14;101713.63;;;20.58;39.96
39891;BME280;25564;53.312;9.790;2023-05-29T13:04:47;101724.41;;;20.58;39.55
39891;BME280;25564;53.312;9.790;2023-05-29T13:07:18;101705.78;;;20.52;39.16
39891;BME280;25564;53.312;9.790;2023-05-29T13:09:50;101713.94;;;20.50;38.63
39891;BME280;25564;53.312;9.790;2023-05-29T13:12:22;101703.28;;;20.47;38.63
39891;BME280;25564;53.312;9.790;2023-05-29T13:14:53;101693.25;;;20.51;38.76
39891;BME280;25564;53.312;9.790;2023-05-29T13:17:27;101695.13;;;20.49;39.00
39891;BME280;25564;53.312;9.790;2023-05-29T13:19:59;101690.56;;;20.51;39.28
39891;BME280;25564;53.312;9.790;2023-05-29T13:22:30;101675.66;;;20.42;39.25
39891;BME280;25564;53.312;9.790;2023-05-29T13:25:03;101688.13;;;20.45;39.34
39891;BME280;25564;53.312;9.790;2023-05-29T13:27:36;101682.84;;;20.42;39.76
39891;BME280;25564;53.312;9.790;2023-05-29T13:30:09;101678.13;;;20.47;39.34
39891;BME280;25564;53.312;9.790;2023-05-29T13:32:41;101679.09;;;20.66;39.42
39891;BME280;25564;53.312;9.790;2023-05-29T13:35:13;101675.44;;;20.67;39.34
39891;BME280;25564;53.312;9.790;2023-05-29T13:37:45;101686.88;;;20.93;40.05